Time;durP1;ratioP1;P1;durP2;ratioP2;P2;SDS_P1;SDS_P2;PMS_P1;PMS_P2;Temp;Humidity;BMP_temperature;BMP_pressure;BME280_temperature;BME280_humidity;BME280_pressure;Samples;Min_cycle;Max_cycle;Signal;HPM_P1;HPM_P2
2023/10/06 06:58:05;;;;;;;;;4.00;3.00;;;;;26.45;39.76;102485.16;5689960;22;46161;-81
2023/10/06 07:00:30;;;;;;;;;3.00;3.00;;;;;26.46;39.95;102491.34;4958914;28;45442;-81
2023/10/06 07:02:56;;;;;;;;;2.33;1.33;;;;;26.40;39.50;102483.00;4965802;28;45833;-81
2023/10/06 07:05:22;;;;;;;;;2.67;2.33;;;;;26.45;40.06;102495.84;4969104;28;45401;-81
2023/10/06 07:07:52;;;;;;;;;2.67;1.33;;;;;26.52;39.73;102502.16;4961581;28;45541;-80
2023/10/06 07:10:22;;;;;;;;;2.67;2.33;;;;;26.49;39.32;102491.00;4978240;28;45256;-81
2023/10/06 07:12:50;;;;;;;;;2.00;2.00;;;;;26.55;40.05;102502.81;4973437;28;45488;-81
2023/10/06 07:15:17;;;;;;;;;4.00;1.00;;;;;26.55;39.97;102495.66;4958330;28;45461;-81
2023/10/06 07:17:53;;;;;;;;;2.00;2.00;;;;;26.57;39.40;102500.84;4972288;28;46287;-81
2023/10/06 07:20:27;;;;;;;;;2.67;2.00;;;;;26.59;39.52;102501.50;4978402;28;45203;-81
2023/10/06 07:22:54;;;;;;;;;3.33;1.67;;;;;26.62;39.37;102501.97;4978691;28;45334;-82
2023/10/06 07:25:23;;;;;;;;;2.00;2.00;;;;;26.57;39.42;102492.81;4978253;28;45392;-81
2023/10/06 07:27:50;;;;;;;;;2.00;2.00;;;;;26.59;39.88;102497.00;4976628;28;47212;-82
2023/10/06 07:30:16;;;;;;;;;2.33;2.33;;;;;26.40;39.41;102463.47;4958938;28;45288;-81
2023/10/06 07:32:46;;;;;;;;;2.67;1.67;;;;;26.72;39.74;102511.63;4958622;28;45230;-81
2023/10/06 07:35:13;;;;;;;;;2.00;2.00;;;;;26.66;39.22;102501.63;4958366;28;45461;-81
2023/10/06 07:37:43;;;;;;;;;1.00;1.00;;;;;26.76;39.68;102518.28;4958863;28;45426;-81
2023/10/06 07:40:15;;;;;;;;;1.33;1.33;;;;;26.72;39.17;102493.78;4958864;28;45231;-80
2023/10/06 07:42:41;;;;;;;;;3.00;3.00;;;;;26.89;40.09;102517.72;4958550;28;45466;-82
2023/10/06 07:45:07;;;;;;;;;3.67;3.33;;;;;26.88;39.73;102512.56;4957956;28;45251;-81
2023/10/06 07:47:34;;;;;;;;;1.00;1.00;;;;;26.79;39.07;102480.56;4958886;28;46010;-82
2023/10/06 07:50:00;;;;;;;;;2.33;2.33;;;;;27.03;39.32;102500.16;4958263;28;45319;-82
2023/10/06 07:52:25;;;;;;;;;2.00;2.00;;;;;27.29;39.39;102520.44;4958500;28;45375;-82
2023/10/06 07:54:51;;;;;;;;;3.00;3.00;;;;;27.45;38.64;102520.50;4958395;28;45334;-81
2023/10/06 07:57:17;;;;;;;;;3.33;3.00;;;;;27.74;39.01;102524.28;4957916;28;45549;-81
2023/10/06 07:59:43;;;;;;;;;3.00;1.67;;;;;28.02;38.03;102529.13;4957374;28;45294;-82
2023/10/06 08:02:10;;;;;;;;;3.00;3.00;;;;;28.37;38.09;102531.31;4958204;28;45361;-82
2023/10/06 08:04:35;;;;;;;;;3.00;3.00;;;;;28.67;37.19;102527.00;4958208;28;45437;-81
2023/10/06 08:07:00;;;;;;;;;2.00;2.00;;;;;29.05;36.71;102537.59;4958368;28;45583;-81
2023/10/06 08:09:26;;;;;;;;;2.00;2.00;;;;;29.29;36.36;102519.53;4957652;28;51619;-81
2023/10/06 08:11:54;;;;;;;;;4.00;4.00;;;;;29.63;36.26;102527.94;4957986;28;45327;-81
2023/10/06 08:14:20;;;;;;;;;2.00;2.00;;;;;29.86;35.68;102534.13;4957772;28;45330;-82
2023/10/06 08:16:49;;;;;;;;;2.00;2.00;;;;;30.22;35.32;102537.69;4958234;28;47053;-82
2023/10/06 08:19:15;;;;;;;;;4.00;2.33;;;;;30.60;35.28;102535.69;4957325;28;45310;-82
2023/10/06 08:21:41;;;;;;;;;2.67;2.67;;;;;30.92;34.50;102532.50;4958158;28;45327;-82
2023/10/06 08:24:07;;;;;;;;;5.00;3.67;;;;;30.96;34.46;102528.44;4958117;28;45303;-82
2023/10/06 08:26:32;;;;;;;;;1.33;1.33;;;;;30.96;34.00;102536.50;4957798;28;46422;-82
2023/10/06 08:28:57;;;;;;;;;1.33;1.33;;;;;30.92;34.19;102540.56;4957633;28;45265;-82
2023/10/06 08:31:24;;;;;;;;;1.33;1.33;;;;;30.56;34.21;102519.13;4958368;28;45410;-82
2023/10/06 08:33:49;;;;;;;;;2.00;2.00;;;;;30.51;34.08;102545.75;4957716;28;45186;-82
2023/10/06 08:36:16;;;;;;;;;2.00;2.00;;;;;30.35;34.50;102550.41;4957396;28;45372;-81
2023/10/06 08:38:42;;;;;;;;;1.00;1.00;;;;;30.15;34.57;102553.75;4957392;28;45342;-80
2023/10/06 08:41:10;;;;;;;;;2.00;2.00;;;;;29.89;34.97;102543.63;4957656;28;45393;-80
2023/10/06 08:43:38;;;;;;;;;3.00;3.00;;;;;29.76;35.23;102555.09;4958170;28;45418;-82
2023/10/06 08:46:04;;;;;;;;;2.00;2.00;;;;;29.65;35.50;102559.91;4957787;28;46218;-82
2023/10/06 08:48:31;;;;;;;;;2.00;2.00;;;;;29.44;35.59;102553.50;4957115;28;45397;-82
2023/10/06 08:50:59;;;;;;;;;3.00;3.00;;;;;29.24;35.69;102542.56;4957714;28;45485;-82
2023/10/06 08:53:26;;;;;;;;;2.33;2.33;;;;;29.22;35.73;102556.16;4958008;28;45427;-81
2023/10/06 08:55:51;;;;;;;;;3.00;3.00;;;;;29.16;36.24;102557.75;4957227;28;45362;-82
2023/10/06 08:58:17;;;;;;;;;2.33;2.00;;;;;29.04;36.11;102556.53;4956845;28;45289;-82
2023/10/06 09:00:43;;;;;;;;;2.67;2.67;;;;;28.96;36.13;102560.97;4957052;28;45352;-81
2023/10/06 09:03:14;;;;;;;;;3.00;2.00;;;;;28.91;35.93;102566.06;4957226;28;45236;-81
2023/10/06 09:05:44;;;;;;;;;1.33;1.33;;;;;28.84;36.17;102565.97;4956980;28;46194;-81
2023/10/06 09:08:12;;;;;;;;;2.00;2.00;;;;;28.77;36.81;102557.03;4957008;28;45447;-81
2023/10/06 09:10:40;;;;;;;;;2.00;2.00;;;;;28.70;36.97;102556.09;4956752;28;45295;-81
2023/10/06 09:13:11;;;;;;;;;2.67;2.67;;;;;28.48;36.48;102530.06;4957283;28;45310;-81
2023/10/06 09:15:40;;;;;;;;;4.00;2.00;;;;;28.58;37.03;102551.19;4956729;28;46143;-81
2023/10/06 09:18:28;;;;;;;;;2.67;2.33;;;;;28.22;36.99;102498.34;4957166;28;45393;-80
2023/10/06 09:20:55;;;;;;;;;5.00;3.67;;;;;28.48;37.08;102545.28;4957348;28;45556;-81
2023/10/06 09:23:34;;;;;;;;;2.00;2.00;;;;;28.42;37.47;102546.00;4957227;28;45324;-81
2023/10/06 09:26:07;;;;;;;;;2.00;2.00;;;;;28.38;37.17;102546.34;4956450;28;47336;-81
2023/10/06 09:28:33;;;;;;;;;3.00;2.00;;;;;28.05;37.46;102493.16;4956378;28;45417;-81
2023/10/06 09:31:02;;;;;;;;;2.00;2.00;;;;;28.27;37.02;102536.91;4956695;28;45284;-81
2023/10/06 09:33:36;;;;;;;;;2.00;2.00;;;;;28.28;37.53;102540.44;4957193;28;45305;-81
2023/10/06 09:36:07;;;;;;;;;3.00;2.67;;;;;28.24;37.13;102542.63;4956711;28;46182;-80
2023/10/06 09:38:36;;;;;;;;;2.67;2.67;;;;;28.14;37.68;102526.84;4956933;28;45409;-80
2023/10/06 09:41:02;;;;;;;;;2.00;2.00;;;;;28.21;37.38;102539.50;4956798;28;45241;-81
2023/10/06 09:43:33;;;;;;;;;2.00;2.00;;;;;28.18;37.67;102538.03;4957083;28;45222;-81
2023/10/06 09:46:04;;;;;;;;;3.00;3.00;;;;;28.15;37.73;102533.03;4956895;28;46232;-81
2023/10/06 09:48:33;;;;;;;;;3.00;3.00;;;;;28.10;38.03;102522.88;4957006;28;45369;-81
2023/10/06 09:51:01;;;;;;;;;3.00;3.00;;;;;28.11;38.25;102531.72;4957212;28;45413;-82
2023/10/06 09:53:28;;;;;;;;;4.00;2.00;;;;;28.08;38.24;102532.91;4960224;28;45389;-81
2023/10/06 09:55:53;;;;;;;;;3.00;3.00;;;;;28.07;37.86;102524.06;4959959;28;47104;-82
2023/10/06 09:58:19;;;;;;;;;3.00;3.00;;;;;28.04;37.65;102513.72;4960096;28;45788;-81
2023/10/06 10:00:45;;;;;;;;;2.00;2.00;;;;;28.04;37.88;102512.88;4960841;28;45239;-81
2023/10/06 10:03:14;;;;;;;;;3.00;2.00;;;;;28.01;37.77;102510.56;4959876;28;45303;-81
2023/10/06 10:05:41;;;;;;;;;1.00;1.00;;;;;28.02;38.41;102520.28;4959656;28;45435;-81
2023/10/06 10:08:07;;;;;;;;;2.00;2.00;;;;;28.00;38.17;102519.63;4959697;28;45446;-82
2023/10/06 10:10:34;;;;;;;;;2.00;2.00;;;;;27.96;38.24;102517.31;4959950;28;45417;-81
2023/10/06 10:13:27;;;;;;;;;4.00;3.00;;;;;27.95;37.70;102518.31;4961059;28;45642;-81
2023/10/06 10:16:33;;;;;;;;;2.00;2.00;;;;;27.94;38.08;102523.84;4959601;28;47331;-81
2023/10/06 10:19:07;;;;;;;;;1.33;1.33;;;;;27.90;38.14;102515.34;4959464;28;45370;-81
2023/10/06 10:21:34;;;;;;;;;2.67;2.67;;;;;27.91;38.83;102521.53;4960273;28;45437;-81
2023/10/06 10:24:05;;;;;;;;;3.00;2.00;;;;;27.86;38.49;102522.06;4959577;28;45538;-81
2023/10/06 10:26:35;;;;;;;;;2.00;2.00;;;;;27.87;37.86;102517.56;4959599;28;46941;-81
2023/10/06 10:29:12;;;;;;;;;2.00;1.00;;;;;27.88;38.38;102509.34;4959953;28;45421;-81
2023/10/06 10:31:44;;;;;;;;;2.33;1.00;;;;;27.85;38.24;102513.22;4959744;28;45323;-81
2023/10/06 10:34:20;;;;;;;;;1.67;1.67;;;;;27.83;38.16;102506.38;4959437;28;45296;-82
2023/10/06 10:36:48;;;;;;;;;3.67;2.33;;;;;27.83;38.60;102501.88;4958465;28;46312;-81
2023/10/06 10:39:17;;;;;;;;;3.00;3.00;;;;;27.74;38.60;102489.53;4958814;28;45373;-81
2023/10/06 10:41:45;;;;;;;;;3.67;3.00;;;;;27.74;38.74;102490.38;4959606;28;45283;-81
2023/10/06 10:44:12;;;;;;;;;2.00;2.00;;;;;27.79;38.48;102497.03;4959602;28;45300;-81
2023/10/06 10:46:42;;;;;;;;;3.33;2.00;;;;;27.76;38.34;102500.06;4958955;28;46283;-81
2023/10/06 10:49:10;;;;;;;;;2.00;2.00;;;;;27.71;38.53;102488.03;4959284;28;45425;-82
2023/10/06 10:51:51;;;;;;;;;2.00;2.00;;;;;27.74;39.01;102489.53;4958977;28;45488;-82
2023/10/06 10:54:21;;;;;;;;;2.67;2.67;;;;;27.71;39.02;102498.72;4959510;28;45544;-82
2023/10/06 10:56:51;;;;;;;;;3.00;2.00;;;;;27.57;38.33;102470.94;4957790;28;47453;-82
2023/10/06 10:59:16;;;;;;;;;4.00;3.00;;;;;27.66;38.46;102478.91;4958818;28;45322;-81
2023/10/06 11:01:44;;;;;;;;;2.33;2.33;;;;;27.71;39.07;102487.22;4956036;28;45684;-77
2023/10/06 11:04:18;;;;;;;;;3.67;3.67;;;;;27.68;38.32;102485.75;4958294;28;45505;-79
2023/10/06 11:06:46;;;;;;;;;4.33;3.67;;;;;27.68;38.38;102485.75;4952655;28;45532;-75
2023/10/06 11:12:19;;;;;;;;;4.67;1.67;;;;;27.66;39.27;102478.91;4958314;28;45512;-76
2023/10/06 11:14:45;;;;;;;;;0.33;0.00;;;;;27.67;39.34;102476.06;4958281;28;45491;-75
2023/10/06 11:17:12;;;;;;;;;4.00;4.00;;;;;27.68;38.56;102479.56;4952464;28;46233;-75
2023/10/06 11:19:39;;;;;;;;;3.00;2.00;;;;;27.67;39.06;102477.88;4958678;28;45441;-76
2023/10/06 11:22:22;;;;;;;;;1.67;1.67;;;;;27.60;39.14;102465.25;4958181;28;45449;-77
2023/10/06 11:24:50;;;;;;;;;3.00;3.00;;;;;27.68;39.10;102477.72;4958979;28;45312;-77
2023/10/06 11:27:23;;;;;;;;;3.33;3.33;;;;;27.61;39.41;102466.09;4958335;28;46323;-77
2023/10/06 11:29:53;;;;;;;;;2.00;2.00;;;;;27.37;39.32;102420.66;4958364;28;45350;-77
2023/10/06 11:32:19;;;;;;;;;5.00;2.00;;;;;27.66;39.52;102463.72;4958606;28;45497;-76
2023/10/06 11:34:45;;;;;;;;;3.00;2.67;;;;;27.67;39.53;102462.69;4951307;28;45565;-77
2023/10/06 11:37:12;;;;;;;;;5.00;2.00;;;;;27.68;39.55;102459.00;4952603;28;46253;-77
2023/10/06 11:39:38;;;;;;;;;2.33;2.33;;;;;27.53;39.54;102440.25;4958296;28;45377;-76
2023/10/06 11:42:26;;;;;;;;;3.00;3.00;;;;;27.68;39.15;102459.00;4957796;28;45301;-77
2023/10/06 11:44:52;;;;;;;;;2.67;2.67;;;;;27.68;39.74;102460.84;4958168;28;45508;-74
2023/10/06 11:47:18;;;;;;;;;2.00;2.00;;;;;27.60;39.60;102451.88;4957864;28;45469;-77
2023/10/06 11:49:58;;;;;;;;;2.00;2.00;;;;;27.65;39.11;102462.03;4957769;28;45477;-77
2023/10/06 11:52:24;;;;;;;;;2.00;2.00;;;;;27.57;39.17;102456.75;4957944;28;45374;-77
2023/10/06 11:54:51;;;;;;;;;3.00;1.00;;;;;27.62;39.44;102457.03;4958457;28;45220;-76
2023/10/06 11:57:19;;;;;;;;;2.00;2.00;;;;;27.61;39.07;102450.06;4957369;28;47140;-75
2023/10/06 11:59:52;;;;;;;;;3.00;3.00;;;;;27.60;39.64;102456.41;4957943;28;45513;-76
2023/10/06 12:02:19;;;;;;;;;4.00;3.00;;;;;27.56;39.14;102447.91;4957488;28;45373;-76
2023/10/06 12:04:44;;;;;;;;;3.00;1.67;;;;;27.55;39.41;102448.09;4957858;28;45455;-76
2023/10/06 12:07:22;;;;;;;;;1.67;1.67;;;;;27.46;39.20;102442.78;4960717;28;46203;-76
2023/10/06 12:09:48;;;;;;;;;3.00;1.00;;;;;27.46;39.60;102432.09;4962230;28;45639;-76
2023/10/06 12:12:16;;;;;;;;;2.00;2.00;;;;;27.44;39.86;102428.78;4958926;28;45341;-76
2023/10/06 12:14:42;;;;;;;;;3.00;3.00;;;;;27.49;39.22;102430.91;4957044;28;45458;-76
2023/10/06 12:17:08;;;;;;;;;4.00;2.33;;;;;27.47;39.55;102433.78;4957390;28;46866;-75
2023/10/06 12:19:33;;;;;;;;;6.00;5.00;;;;;27.38;39.63;102418.81;4957263;28;45503;-77
2023/10/06 12:21:59;;;;;;;;;2.67;2.00;;;;;27.50;39.68;102427.25;4957749;28;45496;-77
2023/10/06 12:24:25;;;;;;;;;2.00;2.00;;;;;27.36;39.93;102412.81;4957226;28;45446;-77
2023/10/06 12:26:51;;;;;;;;;2.33;2.00;;;;;27.45;40.08;102418.94;4955135;28;46560;-75
2023/10/06 12:29:17;;;;;;;;;3.00;3.00;;;;;27.28;39.37;102387.81;4955965;28;45380;-76
2023/10/06 12:31:46;;;;;;;;;2.33;2.33;;;;;27.47;39.49;102420.41;4957476;28;45453;-76
2023/10/06 12:34:15;;;;;;;;;4.00;3.00;;;;;27.46;39.41;102416.06;4957250;28;45315;-76
2023/10/06 12:36:41;;;;;;;;;2.67;2.67;;;;;27.42;38.81;102406.75;4957194;28;47597;-77
2023/10/06 12:39:15;;;;;;;;;4.33;4.00;;;;;27.43;39.18;102408.41;4957225;28;45472;-76
2023/10/06 12:41:46;;;;;;;;;3.00;3.00;;;;;27.37;38.88;102396.63;4956799;28;45330;-76
2023/10/06 12:44:12;;;;;;;;;2.00;2.00;;;;;27.32;38.96;102392.81;4956976;28;45382;-76
2023/10/06 12:46:38;;;;;;;;;3.00;3.00;;;;;27.42;39.06;102411.28;4957245;28;46223;-77
2023/10/06 12:49:06;;;;;;;;;2.67;2.67;;;;;27.36;38.86;102389.59;4938976;28;45487;-77
2023/10/06 12:51:35;;;;;;;;;3.00;3.00;;;;;27.26;38.83;102384.50;4957518;28;45453;-77
2023/10/06 12:54:00;;;;;;;;;3.00;3.00;;;;;27.38;39.17;102392.91;4956941;28;45537;-77
2023/10/06 12:56:29;;;;;;;;;2.00;2.00;;;;;27.34;39.27;102394.28;4956712;28;47334;-77
2023/10/06 12:58:54;;;;;;;;;3.00;3.00;;;;;27.31;38.93;102389.31;4956870;28;45352;-77
2023/10/06 13:01:20;;;;;;;;;2.00;2.00;;;;;27.35;38.85;102395.94;4957498;28;45366;-77
2023/10/06 13:03:45;;;;;;;;;5.00;4.00;;;;;27.35;39.36;102389.78;4956346;28;45596;-76
2023/10/06 13:06:12;;;;;;;;;2.00;2.00;;;;;27.29;38.97;102373.47;4946068;28;45295;-77
2023/10/06 13:08:38;;;;;;;;;2.00;2.00;;;;;27.25;39.51;102369.47;4956567;28;45263;-77
2023/10/06 13:11:04;;;;;;;;;1.67;1.67;;;;;27.32;39.56;102374.09;4957222;28;45374;-76
2023/10/06 13:13:29;;;;;;;;;2.00;2.00;;;;;27.31;39.03;102383.13;4956927;28;45326;-76
2023/10/06 13:15:54;;;;;;;;;5.00;3.00;;;;;27.32;39.09;102377.63;4957343;28;46447;-76
2023/10/06 13:18:22;;;;;;;;;2.67;2.33;;;;;27.32;39.63;102390.97;4955901;28;45408;-78
2023/10/06 13:20:47;;;;;;;;;2.00;2.00;;;;;27.31;39.02;102391.97;4957147;28;45421;-77
2023/10/06 13:23:13;;;;;;;;;2.67;2.67;;;;;27.14;39.83;102367.22;4956642;28;45326;-76
2023/10/06 13:25:39;;;;;;;;;3.67;2.67;;;;;27.30;39.71;102390.28;4955998;28;45921;-77
2023/10/06 13:28:14;;;;;;;;;2.00;2.00;;;;;27.23;39.41;102379.50;4956435;28;45334;-77
2023/10/06 13:30:42;;;;;;;;;5.00;3.00;;;;;27.09;39.62;102354.34;4949690;28;45441;-77
2023/10/06 13:33:08;;;;;;;;;4.00;3.00;;;;;27.20;39.79;102382.53;4956445;28;45456;-77
2023/10/06 13:35:34;;;;;;;;;3.00;3.00;;;;;27.16;39.00;102373.22;4956578;28;45328;-78
2023/10/06 13:37:59;;;;;;;;;3.67;2.67;;;;;27.20;39.48;102379.84;4955865;28;45333;-77
2023/10/06 13:40:25;;;;;;;;;2.67;2.67;;;;;27.18;39.35;102374.69;4956817;28;45156;-77
2023/10/06 13:42:50;;;;;;;;;4.00;2.67;;;;;27.23;38.87;102379.50;4955997;28;45238;-77
2023/10/06 13:45:22;;;;;;;;;3.00;3.00;;;;;27.24;39.27;102381.19;4956687;28;46265;-76
2023/10/06 13:47:50;;;;;;;;;4.33;3.67;;;;;27.22;39.26;102371.69;4956328;28;45489;-77
2023/10/06 13:50:19;;;;;;;;;2.67;2.00;;;;;27.03;38.91;102341.72;4956411;28;45373;-77
2023/10/06 13:52:47;;;;;;;;;2.67;2.33;;;;;27.16;38.61;102363.38;4956771;28;45473;-77
2023/10/06 13:55:13;;;;;;;;;3.67;2.33;;;;;27.20;38.79;102371.00;4956072;28;47088;-77
2023/10/06 13:57:40;;;;;;;;;1.67;1.67;;;;;27.17;38.68;102361.50;4955850;28;45472;-77
2023/10/06 14:00:11;;;;;;;;;5.00;2.67;;;;;27.21;38.45;102373.53;4956162;28;45588;-77
2023/10/06 14:02:37;;;;;;;;;3.00;3.00;;;;;27.07;38.99;102351.88;4955746;28;45337;-77
2023/10/06 14:05:03;;;;;;;;;1.00;1.00;;;;;27.20;38.63;102369.16;4955842;28;46316;-77
2023/10/06 14:07:30;;;;;;;;;2.00;2.00;;;;;26.99;39.05;102335.06;4956187;28;45543;-77
2023/10/06 14:09:56;;;;;;;;;3.00;3.00;;;;;26.90;38.97;102327.13;4955761;28;45573;-77
2023/10/06 14:12:24;;;;;;;;;3.00;3.00;;;;;27.17;39.15;102375.69;4956520;28;45469;-76
2023/10/06 14:17:20;;;;;;;;;2.67;2.67;;;;;27.07;39.02;102351.03;4955982;28;45406;-77
2023/10/06 14:19:46;;;;;;;;;2.00;2.00;;;;;27.17;38.82;102361.50;4956430;28;45337;-76
2023/10/06 14:22:12;;;;;;;;;3.67;2.00;;;;;27.09;38.94;102353.53;4956171;28;45505;-77
2023/10/06 14:24:39;;;;;;;;;1.33;1.33;;;;;27.16;38.81;102366.03;4955165;28;45292;-77
2023/10/06 14:27:10;;;;;;;;;1.67;1.67;;;;;27.17;39.03;102366.84;4955728;28;45472;-76
2023/10/06 14:29:36;;;;;;;;;2.67;2.33;;;;;27.13;38.89;102370.91;4955497;28;45360;-77
2023/10/06 14:35:43;;;;;;;;;4.00;1.67;;;;;27.15;39.40;102361.69;4955619;28;45422;-75
2023/10/06 14:37:42;;;;;;;;;2.67;1.33;;;;;27.15;39.51;102364.38;4951263;28;45315;-75
2023/10/06 14:48:20;;;;;;;;;2.00;2.00;;;;;27.11;39.27;102351.53;4956318;28;45525;-79
2023/10/06 14:50:55;;;;;;;;;3.00;2.00;;;;;27.13;39.89;102354.88;4954142;28;45564;-80
2023/10/06 14:53:20;;;;;;;;;2.00;2.00;;;;;27.14;39.84;102344.00;4952893;28;45508;-78
2023/10/06 14:55:47;;;;;;;;;2.00;2.00;;;;;27.13;39.20;102346.84;4954111;28;46059;-78
2023/10/06 14:58:12;;;;;;;;;2.00;2.00;;;;;27.00;39.17;102324.22;4954562;28;45545;-79
2023/10/06 15:00:38;;;;;;;;;1.67;1.67;;;;;27.07;39.33;102338.50;4954651;28;45612;-78
2023/10/06 15:03:03;;;;;;;;;2.00;1.00;;;;;27.13;39.35;102341.50;4952493;28;46203;-77
2023/10/06 15:05:37;;;;;;;;;2.67;2.00;;;;;27.01;39.47;102315.19;4952334;28;45972;-78
2023/10/06 15:08:03;;;;;;;;;4.00;2.00;;;;;27.13;39.40;102342.34;4953328;28;45669;-80
2023/10/06 15:10:28;;;;;;;;;1.00;1.00;;;;;27.04;39.30;102327.34;4953769;28;45618;-79
2023/10/06 15:12:59;;;;;;;;;2.00;2.00;;;;;26.84;39.49;102293.13;4952502;28;45617;-79
2023/10/06 15:15:25;;;;;;;;;1.67;1.67;;;;;26.99;39.60;102311.88;4953611;28;47094;-78
2023/10/06 15:17:55;;;;;;;;;1.67;1.67;;;;;27.11;39.38;102333.66;4952888;28;45485;-78
2023/10/06 15:20:22;;;;;;;;;1.67;1.67;;;;;27.03;40.00;102323.88;4953295;28;45620;-78
2023/10/06 15:22:51;;;;;;;;;3.33;3.33;;;;;27.04;39.79;102328.19;4952662;28;45715;-79
2023/10/06 15:25:16;;;;;;;;;4.00;2.33;;;;;27.02;39.95;102324.03;4953245;28;47353;-79
2023/10/06 15:27:41;;;;;;;;;1.00;1.00;;;;;26.99;39.60;102317.22;4952484;28;45511;-78
2023/10/06 15:30:07;;;;;;;;;3.67;2.67;;;;;27.11;40.13;102338.16;4953418;28;45446;-78
2023/10/06 15:32:32;;;;;;;;;2.00;2.00;;;;;27.10;39.46;102341.84;4953220;28;45517;-78
2023/10/06 15:34:58;;;;;;;;;1.00;1.00;;;;;27.05;40.18;102331.69;4953134;28;46008;-78
2023/10/06 15:37:23;;;;;;;;;1.67;1.33;;;;;27.01;40.02;102330.41;4952978;28;45342;-79
2023/10/06 15:39:50;;;;;;;;;2.00;2.00;;;;;27.03;40.03;102331.88;4952588;28;45557;-79
2023/10/06 15:42:16;;;;;;;;;3.00;2.00;;;;;27.01;39.71;102336.53;4952576;28;46004;-79
2023/10/06 15:44:42;;;;;;;;;2.00;2.00;;;;;27.04;40.26;102340.69;4953925;28;45513;-78
2023/10/06 15:47:07;;;;;;;;;3.00;2.00;;;;;26.94;40.17;102322.25;4952895;28;45516;-78
2023/10/06 15:49:36;;;;;;;;;4.00;2.00;;;;;27.06;39.64;102336.84;4952395;28;45753;-78
2023/10/06 15:52:02;;;;;;;;;2.33;2.00;;;;;27.06;39.79;102341.38;4952306;28;45461;-79
2023/10/06 15:54:28;;;;;;;;;1.00;1.00;;;;;27.05;39.89;102351.22;4952339;28;47111;-78
2023/10/06 15:56:53;;;;;;;;;1.00;1.00;;;;;26.98;40.06;102331.59;4951717;28;45483;-78
2023/10/06 15:59:20;;;;;;;;;2.00;2.00;;;;;26.96;40.05;102333.56;4952863;28;45739;-79
2023/10/06 16:01:47;;;;;;;;;2.33;2.00;;;;;26.78;39.83;102309.88;4952981;28;45544;-80
2023/10/06 16:04:13;;;;;;;;;1.00;1.00;;;;;27.00;39.91;102336.75;4952174;28;46401;-79
2023/10/06 16:06:41;;;;;;;;;2.00;2.00;;;;;26.94;40.21;102333.78;4952755;28;45567;-77
2023/10/06 16:09:09;;;;;;;;;3.67;2.67;;;;;27.01;37.69;102357.91;4952588;28;45428;-76
2023/10/06 16:11:36;;;;;;;;;2.00;1.67;;;;;26.80;36.52;102322.03;4951999;28;45411;-76
2023/10/06 16:14:04;;;;;;;;;3.00;3.00;;;;;26.82;36.43;102344.03;4952139;28;45560;-75
2023/10/06 16:16:30;;;;;;;;;2.67;2.00;;;;;26.72;36.40;102336.25;4952061;28;45484;-75
2023/10/06 16:18:56;;;;;;;;;2.67;2.33;;;;;26.67;36.47;102343.97;4952343;28;45438;-75
2023/10/06 16:21:21;;;;;;;;;4.00;2.00;;;;;26.52;35.77;102335.84;4951747;28;45457;-74
2023/10/06 16:23:47;;;;;;;;;3.67;3.67;;;;;26.52;36.14;102351.88;4952765;28;56325;-75
2023/10/06 16:26:13;;;;;;;;;3.00;2.00;;;;;26.46;36.01;102342.75;4953518;28;45471;-75
2023/10/06 16:28:39;;;;;;;;;2.33;2.00;;;;;26.35;35.57;102338.59;4957516;28;45370;-76
2023/10/06 16:31:10;;;;;;;;;3.00;3.00;;;;;26.26;35.97;102321.78;4956870;28;45520;-75
2023/10/06 16:33:36;;;;;;;;;3.67;2.33;;;;;26.21;35.79;102333.97;4948776;28;45270;-74
2023/10/06 16:36:06;;;;;;;;;3.67;2.67;;;;;26.09;36.02;102323.69;4957130;28;45413;-75
2023/10/06 16:38:31;;;;;;;;;3.00;3.00;;;;;26.20;36.23;102356.31;4957139;28;45351;-75
2023/10/06 16:41:01;;;;;;;;;5.33;2.67;;;;;26.14;35.84;102352.50;4956999;28;45328;-75
2023/10/06 16:43:34;;;;;;;;;2.00;2.00;;;;;26.06;36.75;102346.19;4957549;28;45364;-75
2023/10/06 16:46:04;;;;;;;;;4.00;3.33;;;;;26.13;37.07;102346.31;4957269;28;45377;-75
2023/10/06 16:48:30;;;;;;;;;5.00;2.00;;;;;26.17;37.08;102341.50;4956897;28;45611;-75
2023/10/06 16:50:55;;;;;;;;;1.67;1.67;;;;;26.25;36.68;102346.81;4957100;28;45376;-75
2023/10/06 16:53:21;;;;;;;;;6.00;2.67;;;;;26.18;36.79;102337.81;4957381;28;46524;-75
2023/10/06 16:55:59;;;;;;;;;5.00;2.00;;;;;26.20;36.75;102334.97;4956455;28;45307;-75
2023/10/06 16:58:25;;;;;;;;;6.33;4.33;;;;;26.35;36.77;102367.09;4956802;28;45425;-75
2023/10/06 17:00:51;;;;;;;;;3.33;2.00;;;;;26.37;36.83;102362.41;4957069;28;45464;-75
2023/10/06 17:03:20;;;;;;;;;3.00;2.00;;;;;26.40;37.20;102359.41;4956758;28;45498;-75
2023/10/06 17:05:48;;;;;;;;;2.33;1.67;;;;;26.41;37.29;102367.22;4956529;28;45455;-75
2023/10/06 17:08:13;;;;;;;;;2.00;2.00;;;;;26.45;37.41;102369.59;4957288;28;45446;-75
2023/10/06 17:10:39;;;;;;;;;2.33;2.33;;;;;26.40;37.55;102360.25;4956331;28;45538;-75
2023/10/06 17:13:04;;;;;;;;;2.67;1.00;;;;;26.37;37.43;102357.06;4956374;28;46534;-74
2023/10/06 17:15:30;;;;;;;;;2.00;2.00;;;;;26.46;37.58;102357.91;4956920;28;45466;-74
2023/10/06 17:17:58;;;;;;;;;2.00;2.00;;;;;26.43;37.48;102356.41;4956790;28;45425;-75
2023/10/06 17:20:23;;;;;;;;;2.00;2.00;;;;;26.50;37.34;102370.72;4956955;28;45437;-75
2023/10/06 17:22:49;;;;;;;;;2.33;1.67;;;;;26.49;37.43;102365.59;4956737;28;45964;-74
2023/10/06 17:25:14;;;;;;;;;2.33;2.33;;;;;26.50;37.49;102365.41;4956500;28;45378;-75
2023/10/06 17:27:43;;;;;;;;;3.00;3.00;;;;;26.55;37.71;102372.88;4956631;28;45366;-75
2023/10/06 17:30:11;;;;;;;;;2.33;2.00;;;;;26.54;38.05;102368.56;4956733;28;45496;-76
2023/10/06 17:32:37;;;;;;;;;2.67;2.33;;;;;26.47;37.67;102356.88;4956614;28;45338;-75
2023/10/06 17:35:03;;;;;;;;;1.33;1.33;;;;;26.57;37.66;102378.88;4956664;28;45416;-75
2023/10/06 17:37:29;;;;;;;;;2.00;2.00;;;;;26.57;38.12;102376.19;4956083;28;45512;-75
2023/10/06 17:39:55;;;;;;;;;4.00;2.33;;;;;26.17;38.21;102318.31;4957112;28;45346;-75
2023/10/06 17:42:21;;;;;;;;;2.00;2.00;;;;;26.48;37.94;102370.09;4956387;28;46208;-74
2023/10/06 17:44:47;;;;;;;;;2.00;2.00;;;;;26.60;38.34;102391.03;4956192;28;45365;-74
2023/10/06 17:47:12;;;;;;;;;3.00;1.67;;;;;26.61;38.29;102388.19;4956303;28;45432;-74
2023/10/06 17:49:38;;;;;;;;;2.00;2.00;;;;;26.51;38.01;102368.91;4939234;28;46134;-75
2023/10/06 17:52:05;;;;;;;;;1.00;1.00;;;;;26.55;38.18;102372.03;4956082;28;46109;-75
2023/10/06 17:54:30;;;;;;;;;2.00;2.00;;;;;26.64;38.03;102384.34;4939501;28;46056;-75
2023/10/06 17:56:58;;;;;;;;;2.00;2.00;;;;;26.65;37.92;102396.69;4956024;28;45471;-74
2023/10/06 17:59:23;;;;;;;;;3.00;3.00;;;;;26.57;38.04;102378.06;4956488;28;45421;-75
2023/10/06 18:01:49;;;;;;;;;1.00;1.00;;;;;26.66;38.41;102398.34;4956211;28;46212;-74
2023/10/06 18:04:14;;;;;;;;;3.00;2.00;;;;;26.63;37.89;102385.34;4955881;28;45424;-75
2023/10/06 18:06:39;;;;;;;;;2.00;2.00;;;;;26.56;38.70;102385.22;4955941;28;45348;-74
2023/10/06 18:09:05;;;;;;;;;3.00;3.00;;;;;26.55;38.26;102383.56;4955836;28;49140;-75
2023/10/06 18:11:30;;;;;;;;;3.67;3.33;;;;;26.61;38.59;102387.38;4956114;28;46180;-76
2023/10/06 18:13:56;;;;;;;;;3.33;2.00;;;;;26.64;38.81;102389.69;4959503;28;45278;-75
2023/10/06 18:16:24;;;;;;;;;2.00;2.00;;;;;26.60;38.56;102394.53;4959459;28;45241;-75
2023/10/06 18:18:50;;;;;;;;;3.00;3.00;;;;;26.59;38.58;102398.22;4959746;28;45413;-75
2023/10/06 18:21:17;;;;;;;;;4.00;2.67;;;;;26.62;38.90;102408.53;4958858;28;46278;-74
2023/10/06 18:23:43;;;;;;;;;2.00;2.00;;;;;26.65;38.94;102406.53;4959763;28;45418;-75
2023/10/06 18:26:14;;;;;;;;;3.00;3.00;;;;;26.63;38.40;102404.88;4959784;28;45776;-74
2023/10/06 18:28:43;;;;;;;;;2.67;2.00;;;;;26.61;38.69;102400.72;4959004;28;45370;-75
2023/10/06 18:31:09;;;;;;;;;3.33;2.00;;;;;26.60;38.67;102405.22;4958891;28;46096;-75
2023/10/06 18:33:34;;;;;;;;;1.67;1.67;;;;;26.62;38.69;102405.06;4959171;28;45672;-76
2023/10/06 18:35:59;;;;;;;;;3.00;1.67;;;;;26.60;38.40;102413.22;4954481;28;45346;-75
2023/10/06 18:38:25;;;;;;;;;3.67;2.00;;;;;26.34;38.58;102366.25;4957508;28;45395;-75
2023/10/06 18:40:55;;;;;;;;;3.00;2.33;;;;;26.63;38.61;102404.88;4959071;28;45456;-76